Time;durP1;ratioP1;P1;durP2;ratioP2;P2;SDS_P1;SDS_P2;PMS_P1;PMS_P2;Temp;Humidity;BMP_temperature;BMP_pressure;BME280_temperature;BME280_humidity;BME280_pressure;Samples;Min_cycle;Max_cycle;Signal;HPM_P1;HPM_P2
2021/04/12 00:01:38;;;;;;;5.22;3.42;;;1.30;99.90;;;;;;4917895;29;20199;-82
2021/04/12 00:04:07;;;;;;;7.13;3.58;;;1.30;99.90;;;;;;4918262;29;20204;-82
2021/04/12 00:06:41;;;;;;;6.40;3.88;;;1.30;99.90;;;;;;4916798;29;20192;-82
2021/04/12 00:09:13;;;;;;;7.28;3.53;;;1.30;99.90;;;;;;4917742;29;20685;-82
2021/04/12 00:11:44;;;;;;;6.20;3.47;;;1.30;99.90;;;;;;4917562;29;20198;-81
2021/04/12 00:14:15;;;;;;;5.88;3.30;;;1.30;99.90;;;;;;4917633;29;20208;-82
2021/04/12 00:16:46;;;;;;;5.63;3.85;;;1.30;99.90;;;;;;4906398;29;20194;-82
2021/04/12 00:19:21;;;;;;;5.88;3.90;;;1.30;99.90;;;;;;4918047;29;20210;-82
2021/04/12 00:21:52;;;;;;;6.13;4.25;;;1.40;99.90;;;;;;4907153;29;20590;-81
2021/04/12 00:24:24;;;;;;;8.80;4.20;;;1.40;99.90;;;;;;4917762;29;20195;-82
2021/04/12 00:27:02;;;;;;;5.90;3.80;;;1.30;99.90;;;;;;4917403;29;20266;-81
2021/04/12 00:29:33;;;;;;;6.30;3.80;;;1.40;99.90;;;;;;4917669;29;20198;-81
2021/04/12 00:32:13;;;;;;;5.72;3.75;;;1.30;99.90;;;;;;4916980;29;20247;-80
2021/04/12 00:34:46;;;;;;;6.85;3.50;;;1.30;99.90;;;;;;4917416;29;20190;-82
2021/04/12 00:37:19;;;;;;;7.65;4.53;;;1.20;99.90;;;;;;4917407;29;20655;-82
2021/04/12 00:39:50;;;;;;;12.93;4.68;;;1.10;99.90;;;;;;4917330;29;20192;-82
2021/04/12 00:42:39;;;;;;;8.98;5.13;;;1.10;99.90;;;;;;4917676;29;20203;-82
2021/04/12 00:45:37;;;;;;;5.43;4.93;;;1.10;99.90;;;;;;4916795;29;20200;-82
2021/04/12 00:48:31;;;;;;;6.65;3.75;;;1.20;99.90;;;;;;4905901;29;20199;-82
2021/04/12 00:51:10;;;;;;;5.25;4.10;;;1.20;99.90;;;;;;4917250;29;20554;-82
2021/04/12 00:54:01;;;;;;;5.68;4.18;;;1.30;99.90;;;;;;4917483;29;20231;-83
2021/04/12 00:56:33;;;;;;;6.72;4.07;;;1.10;99.90;;;;;;4914515;29;20200;-81
2021/04/12 00:59:05;;;;;;;8.05;4.35;;;1.20;99.90;;;;;;4917091;29;20634;-82
2021/04/12 01:01:45;;;;;;;12.45;4.78;;;1.20;99.90;;;;;;4917224;29;20195;-82
2021/04/12 01:04:42;;;;;;;8.15;4.60;;;1.10;99.90;;;;;;4899522;29;20201;-82
2021/04/12 01:07:36;;;;;;;22.45;4.85;;;1.00;99.90;;;;;;4917307;29;20346;-81
2021/04/12 01:10:35;;;;;;;8.05;4.97;;;1.10;99.90;;;;;;4886348;29;20191;-82
2021/04/12 01:13:45;;;;;;;11.98;5.32;;;1.10;99.90;;;;;;4921325;29;20218;-82
2021/04/12 01:16:29;;;;;;;6.78;4.32;;;1.10;99.90;;;;;;4927667;29;20197;-82
2021/04/12 01:19:06;;;;;;;8.80;5.00;;;1.10;99.90;;;;;;4928072;29;20192;-81
2021/04/12 01:22:21;;;;;;;7.45;4.70;;;1.10;99.90;;;;;;4928500;29;20188;-82
2021/04/12 01:25:25;;;;;;;9.05;4.60;;;1.00;99.90;;;;;;4911136;29;20188;-82
2021/04/12 01:28:27;;;;;;;5.43;3.90;;;0.90;99.90;;;;;;4929561;29;20181;-82
2021/04/12 01:31:31;;;;;;;5.55;4.45;;;1.00;99.90;;;;;;4904395;29;20199;-82
2021/04/12 01:34:26;;;;;;;10.65;5.95;;;1.00;99.90;;;;;;4930198;29;20223;-83
2021/04/12 01:37:11;;;;;;;11.07;6.05;;;1.00;99.90;;;;;;4930388;29;20196;-82
2021/04/12 01:39:47;;;;;;;6.03;4.85;;;0.90;99.90;;;;;;4930473;29;20563;-82
2021/04/12 01:42:31;;;;;;;7.07;5.63;;;0.90;99.90;;;;;;4924466;29;20196;-82
2021/04/12 01:45:11;;;;;;;8.73;5.10;;;0.80;99.90;;;;;;4920808;29;20200;-82
2021/04/12 01:47:55;;;;;;;7.72;4.97;;;0.80;99.90;;;;;;4902137;29;20213;-81
2021/04/12 01:50:28;;;;;;;12.88;5.20;;;0.80;99.90;;;;;;4904088;29;20202;-83
2021/04/12 01:53:39;;;;;;;9.15;6.72;;;0.90;99.90;;;;;;4920480;29;20216;-82
2021/04/12 01:56:35;;;;;;;9.95;6.07;;;1.00;99.90;;;;;;4919811;29;20189;-81
2021/04/12 01:59:15;;;;;;;8.88;4.70;;;1.10;99.90;;;;;;4919552;29;20230;-83
2021/04/12 02:02:05;;;;;;;8.13;5.70;;;1.10;99.90;;;;;;4920704;29;20202;-83
2021/04/12 02:04:42;;;;;;;7.20;4.75;;;1.10;99.90;;;;;;4919895;29;20221;-82
2021/04/12 02:07:17;;;;;;;6.78;5.38;;;1.10;99.90;;;;;;4920475;29;20244;-82
2021/04/12 02:10:23;;;;;;;14.50;5.85;;;1.10;99.90;;;;;;4915176;29;20182;-82
2021/04/12 02:13:01;;;;;;;6.68;5.32;;;1.00;99.90;;;;;;4874432;29;20334;-81
2021/04/12 02:15:45;;;;;;;9.05;6.60;;;0.90;99.90;;;;;;4904810;29;20190;-82
2021/04/12 02:18:27;;;;;;;10.88;6.18;;;1.00;99.90;;;;;;4920116;29;20187;-82
2021/04/12 02:20:58;;;;;;;8.73;6.28;;;1.00;99.90;;;;;;4920484;29;20204;-81
2021/04/12 02:23:43;;;;;;;9.52;5.95;;;0.90;99.90;;;;;;4918857;29;20212;-83
2021/04/12 02:26:24;;;;;;;9.15;5.65;;;0.90;99.90;;;;;;4927887;29;20326;-82
2021/04/12 02:29:19;;;;;;;7.97;5.88;;;0.90;99.90;;;;;;4920819;29;20201;-82
2021/04/12 02:31:51;;;;;;;8.73;5.85;;;0.80;99.90;;;;;;4919641;29;20191;-82
2021/04/12 02:34:39;;;;;;;8.85;6.88;;;0.80;99.90;;;;;;4919691;29;20299;-82
2021/04/12 02:37:12;;;;;;;8.95;5.32;;;0.70;99.90;;;;;;4919220;29;20191;-82
2021/04/12 02:39:52;;;;;;;10.68;6.45;;;0.70;99.90;;;;;;4919767;29;20199;-82
2021/04/12 02:42:27;;;;;;;9.65;7.22;;;0.80;99.90;;;;;;4919099;29;20666;-82
2021/04/12 02:45:07;;;;;;;10.48;7.15;;;0.80;99.90;;;;;;4919752;29;20621;-82
2021/04/12 02:48:16;;;;;;;8.95;7.20;;;0.80;99.90;;;;;;4919103;29;20214;-83
2021/04/12 02:51:04;;;;;;;9.60;7.30;;;0.70;99.90;;;;;;4866171;29;20280;-83
2021/04/12 02:54:08;;;;;;;7.78;6.57;;;0.60;99.90;;;;;;4923502;29;20238;-82
2021/04/12 02:56:44;;;;;;;10.65;6.43;;;0.70;99.90;;;;;;4921210;29;20194;-82
2021/04/12 02:59:28;;;;;;;10.48;6.45;;;0.70;99.90;;;;;;4923090;29;20559;-82
2021/04/12 03:02:39;;;;;;;14.57;8.15;;;0.70;99.90;;;;;;4919128;29;20549;-82
2021/04/12 03:05:19;;;;;;;10.48;7.90;;;0.60;99.90;;;;;;4919460;29;20209;-83
2021/04/12 03:07:58;;;;;;;8.95;7.05;;;0.50;99.90;;;;;;4918709;29;20672;-83
2021/04/12 03:10:42;;;;;;;13.02;7.75;;;0.50;99.90;;;;;;4919182;29;20194;-82
2021/04/12 03:13:38;;;;;;;11.77;8.85;;;0.50;99.90;;;;;;4918527;29;20222;-83
2021/04/12 03:16:14;;;;;;;14.23;7.55;;;0.50;99.90;;;;;;4918546;29;20242;-82
2021/04/12 03:19:22;;;;;;;17.27;8.40;;;0.50;99.90;;;;;;4918152;29;20238;-82
2021/04/12 03:22:05;;;;;;;11.75;8.32;;;0.40;99.90;;;;;;4905383;29;20250;-82
2021/04/12 03:24:40;;;;;;;13.65;8.85;;;0.50;99.90;;;;;;4904458;29;20272;-82
2021/04/12 03:27:16;;;;;;;16.73;9.52;;;0.50;99.90;;;;;;4917871;29;20204;-82
2021/04/12 03:29:54;;;;;;;21.02;11.45;;;0.50;99.90;;;;;;4918508;29;20651;-83
2021/04/12 03:32:42;;;;;;;11.20;8.45;;;0.40;99.90;;;;;;4918081;29;20558;-82
2021/04/12 03:35:16;;;;;;;17.27;10.48;;;0.40;99.90;;;;;;4917831;29;20210;-83
2021/04/12 03:38:08;;;;;;;16.30;9.75;;;0.40;99.90;;;;;;4918462;29;20197;-83
2021/04/12 03:40:38;;;;;;;15.05;12.15;;;0.40;99.90;;;;;;4918058;29;20652;-82
2021/04/12 03:43:21;;;;;;;10.48;9.13;;;0.50;99.90;;;;;;4918082;29;20194;-83
2021/04/12 03:46:18;;;;;;;101.88;63.90;;;0.50;99.90;;;;;;4918058;29;20260;-82
2021/04/12 03:49:26;;;;;;;122.20;68.07;;;0.40;99.90;;;;;;4918142;29;20190;-85
2021/04/12 03:52:32;;;;;;;259.13;169.80;;;0.40;99.90;;;;;;4912773;29;20187;-85
2021/04/12 03:55:19;;;;;;;251.85;155.25;;;0.30;99.90;;;;;;4918044;29;20189;-85
2021/04/12 03:58:19;;;;;;;216.00;135.70;;;0.20;99.90;;;;;;4911110;29;20186;-85
2021/04/12 04:01:01;;;;;;;218.38;147.38;;;0.20;99.90;;;;;;4917898;29;20558;-84
2021/04/12 04:04:03;;;;;;;41.38;30.02;;;0.30;99.90;;;;;;4919008;29;20207;-84
2021/04/12 04:06:50;;;;;;;75.03;60.05;;;0.30;99.90;;;;;;4907616;29;20192;-85
2021/04/12 04:09:50;;;;;;;29.65;26.10;;;0.30;99.90;;;;;;4919355;29;20283;-85
2021/04/12 04:12:41;;;;;;;35.63;25.13;;;0.20;99.90;;;;;;4916686;29;20190;-85
2021/04/12 04:15:37;;;;;;;44.92;34.30;;;0.10;99.90;;;;;;4918141;29;20211;-85
2021/04/12 04:18:18;;;;;;;53.58;41.03;;;0.10;99.90;;;;;;4917839;29;20210;-85
2021/04/12 04:21:17;;;;;;;26.88;23.73;;;0.10;99.90;;;;;;4917360;29;20246;-86
2021/04/12 04:24:01;;;;;;;22.02;18.63;;;0.00;99.90;;;;;;4862460;29;20194;-85
2021/04/12 04:26:47;;;;;;;19.90;17.30;;;-0.10;99.90;;;;;;4917798;29;20336;-85
2021/04/12 04:29:37;;;;;;;15.25;13.32;;;0.00;99.90;;;;;;4918073;29;20264;-85
2021/04/12 04:32:24;;;;;;;21.73;18.13;;;0.00;99.90;;;;;;4917578;29;20693;-85
2021/04/12 04:35:15;;;;;;;21.52;19.25;;;-0.10;99.90;;;;;;4917642;29;20196;-85
2021/04/12 04:38:04;;;;;;;25.95;17.17;;;-0.20;99.90;;;;;;4917160;29;20637;-85
2021/04/12 04:40:45;;;;;;;18.73;15.27;;;-0.20;99.90;;;;;;4917648;29;20654;-86
2021/04/12 04:43:28;;;;;;;17.65;14.60;;;-0.20;99.90;;;;;;4917650;29;20268;-85
2021/04/12 04:46:18;;;;;;;16.13;14.43;;;-0.20;99.90;;;;;;4922202;29;20190;-85
2021/04/12 04:49:13;;;;;;;24.50;18.13;;;-0.30;99.90;;;;;;4918265;29;20200;-85
2021/04/12 04:52:15;;;;;;;21.27;15.70;;;-0.30;99.90;;;;;;4898938;29;20203;-85
2021/04/12 04:55:02;;;;;;;23.90;17.33;;;-0.20;99.90;;;;;;4912419;29;20272;-85
2021/04/12 04:57:42;;;;;;;19.38;17.27;;;-0.20;99.90;;;;;;4897241;29;20667;-84
2021/04/12 05:00:22;;;;;;;22.98;19.48;;;-0.20;99.90;;;;;;4915127;29;20189;-85
2021/04/12 05:03:32;;;;;;;25.60;17.15;;;-0.30;99.90;;;;;;4916811;29;20219;-84
2021/04/12 05:06:28;;;;;;;21.58;15.95;;;-0.20;99.90;;;;;;4911951;29;20189;-85
2021/04/12 05:09:27;;;;;;;22.42;18.63;;;-0.20;99.90;;;;;;4915772;29;20354;-83
2021/04/12 05:12:23;;;;;;;23.17;16.50;;;-0.20;99.90;;;;;;4917252;29;20200;-83
2021/04/12 05:15:20;;;;;;;18.52;15.90;;;-0.20;99.90;;;;;;4903572;29;20275;-83
2021/04/12 05:18:09;;;;;;;20.70;15.85;;;-0.10;99.90;;;;;;4887584;29;20549;-83
2021/04/12 05:20:49;;;;;;;19.75;17.63;;;-0.10;99.90;;;;;;4916675;29;20195;-83
2021/04/12 05:23:48;;;;;;;19.23;17.00;;;0.00;99.90;;;;;;4916472;29;20205;-84
2021/04/12 05:26:56;;;;;;;18.52;16.83;;;0.10;99.90;;;;;;4898578;29;20643;-84
2021/04/12 05:30:05;;;;;;;21.75;16.80;;;0.10;99.90;;;;;;4913890;29;20210;-84
2021/04/12 05:32:44;;;;;;;20.10;16.25;;;0.20;99.90;;;;;;4916862;29;20226;-84
2021/04/12 05:35:37;;;;;;;23.75;18.67;;;0.20;99.90;;;;;;4916748;29;20257;-83
2021/04/12 05:38:37;;;;;;;20.88;15.90;;;0.30;99.90;;;;;;4898578;29;20215;-84
2021/04/12 05:41:35;;;;;;;21.85;18.48;;;0.40;99.90;;;;;;4916695;29;20189;-84
2021/04/12 05:44:29;;;;;;;20.50;18.33;;;0.60;99.90;;;;;;4866685;29;20197;-83
2021/04/12 05:47:26;;;;;;;22.75;17.90;;;0.60;99.90;;;;;;4916958;29;20681;-84
2021/04/12 05:50:17;;;;;;;22.58;17.33;;;0.80;99.90;;;;;;4907852;29;20372;-84
2021/04/12 05:53:12;;;;;;;21.85;18.13;;;0.90;99.90;;;;;;4916840;29;20283;-85
2021/04/12 05:56:04;;;;;;;19.40;17.35;;;0.90;99.90;;;;;;4917634;29;20207;-86
2021/04/12 05:58:52;;;;;;;24.02;19.17;;;1.10;99.90;;;;;;4931470;29;20227;-83
2021/04/12 06:01:43;;;;;;;24.10;18.05;;;1.10;99.90;;;;;;4938277;29;20337;-84
2021/04/12 06:04:21;;;;;;;23.30;18.80;;;1.20;99.90;;;;;;4921731;29;20198;-84
2021/04/12 06:07:38;;;;;;;23.42;19.55;;;1.30;99.90;;;;;;4920403;29;20204;-83
2021/04/12 06:10:36;;;;;;;21.33;19.05;;;1.40;99.90;;;;;;4901858;29;20203;-85
2021/04/12 06:13:29;;;;;;;24.05;17.20;;;1.50;99.90;;;;;;4910789;29;20210;-87
2021/04/12 06:16:17;;;;;;;24.83;17.27;;;1.50;99.90;;;;;;4921117;29;20201;-87
2021/04/12 06:19:18;;;;;;;19.42;17.42;;;1.70;99.90;;;;;;4933244;29;20252;-86
2021/04/12 06:22:17;;;;;;;19.02;16.42;;;1.80;99.90;;;;;;4934683;29;20206;-87
2021/04/12 06:25:09;;;;;;;20.70;16.10;;;1.90;99.90;;;;;;4925217;29;20601;-87
2021/04/12 06:28:12;;;;;;;19.25;15.35;;;2.00;99.90;;;;;;4924788;29;20202;-83
2021/04/12 06:30:52;;;;;;;17.75;15.50;;;2.00;99.90;;;;;;4928842;29;20293;-84
2021/04/12 06:33:46;;;;;;;15.90;14.20;;;2.10;99.90;;;;;;4923031;29;20221;-84
2021/04/12 06:36:32;;;;;;;18.45;15.18;;;2.20;99.90;;;;;;4927313;29;20324;-83
2021/04/12 06:39:31;;;;;;;15.07;12.88;;;2.20;99.90;;;;;;4931477;29;20248;-82
2021/04/12 06:42:33;;;;;;;16.00;13.15;;;2.30;99.90;;;;;;4913928;29;20220;-84
2021/04/12 06:45:41;;;;;;;17.27;12.27;;;2.30;99.90;;;;;;4918456;29;20357;-84
2021/04/12 06:48:47;;;;;;;21.75;12.10;;;2.40;99.90;;;;;;4915661;29;20198;-83
2021/04/12 06:51:45;;;;;;;15.95;12.32;;;2.60;99.90;;;;;;4916609;29;20190;-83
2021/04/12 06:54:52;;;;;;;17.58;12.82;;;2.70;99.90;;;;;;4921074;29;20215;-83
2021/04/12 06:58:01;;;;;;;14.63;13.15;;;2.80;99.90;;;;;;4910554;29;20206;-83
2021/04/12 07:01:13;;;;;;;15.50;13.00;;;3.00;99.90;;;;;;4920371;29;20233;-84
2021/04/12 07:04:16;;;;;;;17.90;11.95;;;3.20;99.90;;;;;;4919312;29;20188;-84
2021/04/12 07:07:08;;;;;;;14.93;11.18;;;3.20;99.90;;;;;;4908813;29;20529;-84
2021/04/12 07:10:09;;;;;;;14.65;12.27;;;3.20;99.90;;;;;;4914586;29;20252;-85
2021/04/12 07:13:10;;;;;;;15.63;11.40;;;3.20;99.90;;;;;;4919327;29;20213;-85
2021/04/12 07:16:22;;;;;;;15.20;11.35;;;3.10;99.90;;;;;;4919359;29;20199;-84
2021/04/12 07:19:26;;;;;;;12.68;11.38;;;3.20;99.90;;;;;;4919272;29;20199;-84
2021/04/12 07:22:21;;;;;;;13.00;11.32;;;3.20;99.90;;;;;;4923380;29;20195;-84
2021/04/12 07:25:28;;;;;;;15.75;14.13;;;3.30;99.90;;;;;;4907400;29;20709;-84
2021/04/12 07:28:38;;;;;;;17.52;14.38;;;3.30;99.90;;;;;;4918893;29;20191;-84
2021/04/12 07:31:44;;;;;;;15.00;10.45;;;3.40;99.90;;;;;;4919329;29;20196;-81
2021/04/12 07:34:53;;;;;;;19.75;13.50;;;3.50;99.90;;;;;;4915594;29;20282;-84
2021/04/12 07:38:12;;;;;;;21.08;12.90;;;3.50;99.90;;;;;;4861150;29;20336;-82
2021/04/12 07:41:27;;;;;;;15.25;10.55;;;3.60;99.90;;;;;;4917824;29;20199;-81
2021/04/12 07:44:30;;;;;;;13.32;11.93;;;3.70;99.90;;;;;;4918784;29;20283;-82
2021/04/12 07:47:52;;;;;;;18.83;13.18;;;3.90;99.90;;;;;;4919371;29;20250;-81
2021/04/12 07:50:52;;;;;;;14.82;12.75;;;4.00;99.90;;;;;;4904021;29;20199;-81
2021/04/12 07:54:04;;;;;;;26.00;13.68;;;4.00;99.90;;;;;;4918390;29;20219;-82
2021/04/12 07:57:16;;;;;;;13.15;11.73;;;4.00;99.90;;;;;;4918754;29;20193;-82
2021/04/12 08:00:37;;;;;;;14.55;10.85;;;4.10;99.90;;;;;;4918332;29;20233;-82
2021/04/12 08:03:39;;;;;;;15.10;9.70;;;4.50;99.90;;;;;;4899226;29;20216;-82
2021/04/12 08:06:42;;;;;;;17.67;13.95;;;4.80;99.90;;;;;;4903393;29;20662;-82
2021/04/12 08:09:48;;;;;;;16.13;10.82;;;4.80;99.90;;;;;;4910909;29;20184;-81
2021/04/12 08:12:48;;;;;;;21.50;12.85;;;4.90;99.90;;;;;;4917976;29;20197;-82
2021/04/12 08:16:08;;;;;;;54.33;30.35;;;4.90;99.90;;;;;;4918024;29;20199;-82
2021/04/12 08:19:10;;;;;;;53.53;44.30;;;5.10;99.90;;;;;;4859750;29;20259;-82
2021/04/12 08:22:10;;;;;;;33.63;24.45;;;5.30;99.90;;;;;;4914862;29;20185;-82
2021/04/12 08:25:01;;;;;;;27.98;21.52;;;5.50;99.90;;;;;;4917821;29;20205;-81
2021/04/12 08:28:10;;;;;;;14.80;11.63;;;5.60;99.90;;;;;;4913322;29;20276;-82
2021/04/12 08:31:06;;;;;;;12.35;9.50;;;5.60;99.90;;;;;;4916989;29;20592;-82
2021/04/12 08:34:23;;;;;;;23.13;16.48;;;5.50;99.90;;;;;;4917310;29;20224;-81
2021/04/12 08:37:07;;;;;;;9.40;6.97;;;5.70;99.90;;;;;;4900194;29;20181;-82
2021/04/12 08:40:01;;;;;;;11.23;6.97;;;6.00;99.90;;;;;;4917645;29;20193;-82
2021/04/12 08:42:42;;;;;;;29.08;25.92;;;6.10;99.90;;;;;;4894163;29;20199;-81
2021/04/12 08:45:39;;;;;;;11.48;8.00;;;6.10;99.90;;;;;;4916919;29;20713;-82
2021/04/12 08:48:27;;;;;;;9.18;5.28;;;6.20;99.90;;;;;;4916809;29;20204;-81
2021/04/12 08:51:16;;;;;;;8.65;5.30;;;6.20;99.90;;;;;;4917405;29;20653;-81
2021/04/12 08:54:20;;;;;;;9.02;6.40;;;6.20;99.90;;;;;;4916925;29;20220;-82
2021/04/12 08:57:14;;;;;;;8.40;5.97;;;6.40;99.90;;;;;;4916787;29;20192;-82
2021/04/12 09:00:06;;;;;;;17.38;15.77;;;6.40;99.90;;;;;;4916467;29;20240;-81
2021/04/12 09:03:02;;;;;;;8.80;8.00;;;6.30;99.90;;;;;;4917135;29;20193;-83
2021/04/12 09:06:04;;;;;;;10.13;8.55;;;6.20;99.90;;;;;;4907311;29;20181;-83
2021/04/12 09:08:58;;;;;;;8.68;7.05;;;6.10;99.90;;;;;;4912282;29;20188;-82
2021/04/12 09:12:02;;;;;;;9.10;5.97;;;6.10;99.90;;;;;;4912200;29;20208;-81
2021/04/12 09:15:02;;;;;;;6.15;5.25;;;6.50;99.90;;;;;;4917342;29;20216;-83
2021/04/12 09:17:47;;;;;;;8.23;5.18;;;6.70;99.90;;;;;;4917149;29;20196;-83
2021/04/12 09:20:28;;;;;;;9.60;5.15;;;6.70;99.90;;;;;;4901018;29;20584;-82
2021/04/12 09:23:18;;;;;;;6.25;4.40;;;6.70;99.90;;;;;;4912188;29;20642;-82
2021/04/12 09:26:39;;;;;;;10.30;5.82;;;6.70;99.90;;;;;;4915873;29;20679;-82
2021/04/12 09:29:52;;;;;;;10.00;5.95;;;6.80;99.90;;;;;;4916527;29;20193;-82
2021/04/12 09:32:43;;;;;;;11.98;7.20;;;6.90;99.90;;;;;;4877772;29;20190;-82
2021/04/12 09:35:33;;;;;;;6.88;5.60;;;7.10;99.90;;;;;;4920339;29;20197;-83
2021/04/12 09:38:32;;;;;;;8.55;6.55;;;7.10;99.90;;;;;;4913494;29;20208;-83
2021/04/12 09:41:40;;;;;;;15.40;7.63;;;7.00;99.90;;;;;;4912380;29;20232;-83
2021/04/12 09:44:52;;;;;;;8.55;7.32;;;6.70;99.90;;;;;;4920562;29;20568;-81
2021/04/12 09:48:00;;;;;;;4.38;3.97;;;6.30;99.90;;;;;;4920455;29;20260;-81
2021/04/12 09:51:04;;;;;;;5.50;4.60;;;5.70;99.90;;;;;;4917583;29;20200;-81
2021/04/12 09:54:08;;;;;;;4.88;4.35;;;4.90;99.90;;;;;;4917008;29;20224;-82
2021/04/12 09:57:11;;;;;;;6.65;4.03;;;4.60;99.90;;;;;;4916884;29;20219;-82
2021/04/12 09:59:46;;;;;;;5.38;3.92;;;4.50;99.90;;;;;;4920723;29;20688;-83
2021/04/12 10:02:51;;;;;;;6.15;4.93;;;4.80;99.90;;;;;;4919593;29;20679;-82
2021/04/12 10:05:46;;;;;;;6.20;5.50;;;5.30;99.90;;;;;;4914647;29;20193;-83
2021/04/12 10:08:26;;;;;;;7.75;6.97;;;5.60;99.90;;;;;;4913741;29;20189;-84
2021/04/12 10:10:59;;;;;;;5.25;4.75;;;5.60;99.90;;;;;;4920533;29;20605;-82
2021/04/12 10:13:37;;;;;;;5.80;5.10;;;5.60;99.90;;;;;;4920424;29;20222;-81
2021/04/12 10:16:08;;;;;;;6.03;3.90;;;5.20;99.90;;;;;;4921210;29;20275;-81
2021/04/12 10:18:42;;;;;;;3.10;2.05;;;4.80;99.90;;;;;;4922358;29;20185;-83
2021/04/12 10:21:25;;;;;;;3.38;2.47;;;4.50;99.90;;;;;;4923932;29;20216;-82
2021/04/12 10:23:54;;;;;;;3.55;2.00;;;4.30;99.90;;;;;;4927621;29;20196;-82
2021/04/12 10:26:27;;;;;;;8.60;2.25;;;4.20;99.90;;;;;;4930906;29;20177;-82
2021/04/12 10:29:03;;;;;;;3.45;2.20;;;4.20;99.90;;;;;;4926422;29;20193;-81
2021/04/12 10:31:34;;;;;;;4.57;2.70;;;4.30;99.90;;;;;;4925318;29;20275;-82
2021/04/12 10:34:20;;;;;;;4.25;2.80;;;4.60;99.90;;;;;;4940906;29;20227;-82
2021/04/12 10:37:07;;;;;;;4.22;3.00;;;4.80;99.90;;;;;;4942247;29;20180;-82
2021/04/12 10:39:38;;;;;;;4.72;3.38;;;5.00;99.90;;;;;;4941977;29;20181;-83
2021/04/12 10:42:15;;;;;;;4.30;3.90;;;5.00;99.90;;;;;;4932219;29;20189;-81
2021/04/12 10:44:48;;;;;;;8.25;5.50;;;5.30;99.90;;;;;;4931504;29;20185;-81
2021/04/12 10:47:21;;;;;;;5.55;4.47;;;5.80;99.90;;;;;;4928477;29;20526;-81
2021/04/12 10:49:59;;;;;;;5.45;4.95;;;6.30;99.90;;;;;;4923419;29;20637;-82
2021/04/12 10:52:41;;;;;;;4.50;4.10;;;6.60;99.90;;;;;;4923893;29;20193;-82
2021/04/12 10:55:19;;;;;;;4.57;3.33;;;7.00;99.90;;;;;;4923139;29;20279;-82
2021/04/12 10:58:17;;;;;;;6.55;3.28;;;7.10;99.90;;;;;;4904277;29;20206;-82
2021/04/12 11:00:58;;;;;;;5.00;3.60;;;7.40;99.90;;;;;;4929544;29;20236;-81
2021/04/12 11:03:40;;;;;;;5.28;3.13;;;7.40;99.90;;;;;;4941618;29;20240;-81
2021/04/12 11:06:22;;;;;;;6.55;4.10;;;7.30;99.90;;;;;;4940044;29;20185;-82
2021/04/12 11:09:01;;;;;;;5.90;3.60;;;7.10;99.90;;;;;;4942496;29;20262;-83
2021/04/12 11:11:32;;;;;;;3.47;2.10;;;7.10;99.90;;;;;;4942606;29;20192;-82
2021/04/12 11:14:04;;;;;;;6.00;1.80;;;6.80;99.90;;;;;;4942944;29;20231;-81
2021/04/12 11:16:39;;;;;;;3.38;2.35;;;6.10;99.90;;;;;;4942685;29;20189;-81
2021/04/12 11:19:22;;;;;;;2.17;1.25;;;5.70;99.90;;;;;;4942754;29;20189;-80
2021/04/12 11:22:02;;;;;;;3.03;1.77;;;5.50;99.90;;;;;;4941976;29;20195;-82
2021/04/12 11:24:36;;;;;;;3.78;2.10;;;5.50;99.90;;;;;;4942277;29;20252;-82
2021/04/12 11:27:48;;;;;;;3.13;1.42;;;5.60;99.90;;;;;;4941605;29;20233;-82
2021/04/12 11:30:19;;;;;;;6.95;2.08;;;5.40;99.90;;;;;;4941817;29;20245;-82
2021/04/12 11:33:22;;;;;;;2.22;1.77;;;5.50;99.90;;;;;;4941630;29;20189;-81
2021/04/12 11:35:59;;;;;;;2.80;2.10;;;5.40;99.90;;;;;;4941974;29;20177;-82
2021/04/12 11:38:30;;;;;;;3.63;2.35;;;5.50;99.90;;;;;;4942327;29;20257;-82
2021/04/12 11:41:02;;;;;;;2.33;1.95;;;5.60;99.90;;;;;;4942291;29;20189;-82
2021/04/12 11:43:31;;;;;;;4.60;2.60;;;6.00;99.90;;;;;;4942215;29;20191;-81
2021/04/12 11:46:08;;;;;;;2.83;1.95;;;5.90;99.90;;;;;;4941970;29;20173;-81
2021/04/12 11:48:47;;;;;;;2.58;2.20;;;6.10;99.90;;;;;;4938483;29;20200;-82
2021/04/12 11:51:22;;;;;;;3.08;1.65;;;5.70;99.90;;;;;;4940365;29;20189;-82
2021/04/12 11:53:55;;;;;;;4.20;2.22;;;5.20;99.90;;;;;;4929899;29;20256;-81
2021/04/12 11:56:35;;;;;;;3.90;2.85;;;4.60;99.90;;;;;;4930224;29;20240;-81
2021/04/12 11:59:08;;;;;;;3.05;2.30;;;4.30;99.90;;;;;;4935285;29;20229;-83
2021/04/12 12:01:43;;;;;;;3.80;2.25;;;4.10;99.90;;;;;;4934994;29;20222;-81
2021/04/12 12:04:16;;;;;;;4.55;3.00;;;3.90;99.90;;;;;;4933113;29;20251;-82
2021/04/12 12:06:59;;;;;;;2.63;2.25;;;3.80;99.90;;;;;;4909265;29;20188;-84
2021/04/12 12:09:43;;;;;;;3.65;2.67;;;3.70;99.90;;;;;;4910131;29;20658;-84
2021/04/12 12:12:34;;;;;;;4.38;3.90;;;3.90;99.90;;;;;;4923094;29;20644;-83
2021/04/12 12:15:06;;;;;;;4.15;3.15;;;4.10;99.90;;;;;;4921403;29;20585;-83
2021/04/12 12:17:39;;;;;;;2.88;2.20;;;4.40;99.90;;;;;;4920048;29;20549;-83
2021/04/12 12:20:15;;;;;;;3.55;2.58;;;4.50;99.90;;;;;;4920041;29;20189;-83
2021/04/12 12:22:53;;;;;;;3.70;2.20;;;4.50;99.90;;;;;;4901922;29;20713;-83
2021/04/12 12:25:32;;;;;;;2.50;1.98;;;4.50;99.90;;;;;;4902022;29;20193;-84
2021/04/12 12:28:06;;;;;;;4.40;3.47;;;5.10;99.90;;;;;;4918606;29;20256;-84
2021/04/12 12:30:43;;;;;;;2.88;1.60;;;6.50;99.90;;;;;;4918890;29;20645;-84
2021/04/12 12:33:15;;;;;;;2.60;1.50;;;7.60;99.90;;;;;;4918571;29;20216;-84
2021/04/12 12:35:51;;;;;;;2.30;1.60;;;8.50;99.90;;;;;;4918472;29;20191;-83
2021/04/12 12:38:37;;;;;;;3.95;1.55;;;8.70;99.90;;;;;;4919701;29;20192;-84
2021/04/12 12:41:14;;;;;;;2.45;1.30;;;8.70;99.90;;;;;;4918685;29;20189;-84
2021/04/12 12:43:43;;;;;;;2.10;1.00;;;9.30;99.90;;;;;;4919180;29;20193;-83
2021/04/12 12:46:11;;;;;;;3.55;1.60;;;9.40;99.90;;;;;;4916713;29;20185;-81
2021/04/12 12:48:47;;;;;;;3.17;1.38;;;10.10;99.90;;;;;;4916733;29;20219;-81
2021/04/12 12:51:16;;;;;;;3.15;1.30;;;10.80;99.90;;;;;;4917249;29;20227;-82
2021/04/12 12:53:46;;;;;;;6.20;2.15;;;11.40;99.90;;;;;;4917566;29;20308;-82
2021/04/12 12:56:21;;;;;;;4.90;2.45;;;11.90;99.90;;;;;;4919216;29;20195;-83
2021/04/12 12:59:00;;;;;;;5.88;2.25;;;12.20;99.90;;;;;;4906168;29;20224;-81
2021/04/12 13:01:29;;;;;;;2.92;1.83;;;11.20;99.90;;;;;;4913866;29;20196;-82
2021/04/12 13:04:06;;;;;;;3.85;2.28;;;11.10;99.90;;;;;;4914735;29;20308;-82
2021/04/12 13:06:33;;;;;;;3.33;2.20;;;11.60;99.90;;;;;;4917764;29;20189;-82
2021/04/12 13:09:20;;;;;;;6.35;4.00;;;11.60;99.90;;;;;;4923348;29;20219;-82
2021/04/12 13:11:49;;;;;;;3.00;2.45;;;11.10;99.90;;;;;;4920074;29;20649;-83
2021/04/12 13:14:27;;;;;;;7.30;3.50;;;11.40;99.90;;;;;;4911582;29;20225;-82
2021/04/12 13:16:54;;;;;;;6.70;2.70;;;11.50;99.90;;;;;;4923119;29;20766;-83
2021/04/12 13:19:21;;;;;;;4.18;2.42;;;12.50;99.90;;;;;;4920489;29;20264;-82
2021/04/12 13:21:52;;;;;;;3.35;2.55;;;13.00;99.90;;;;;;4918327;29;20240;-82
2021/04/12 13:24:25;;;;;;;4.43;2.97;;;12.60;99.90;;;;;;4923149;29;20193;-82
2021/04/12 13:26:59;;;;;;;5.75;2.35;;;12.00;99.90;;;;;;4923332;29;20617;-82
2021/04/12 13:29:28;;;;;;;4.28;3.50;;;11.80;99.90;;;;;;4924048;29;20192;-82
2021/04/12 13:31:58;;;;;;;4.15;3.40;;;11.10;99.90;;;;;;4923944;29;20191;-82
2021/04/12 13:34:28;;;;;;;3.45;3.10;;;10.70;99.90;;;;;;4923789;29;20754;-82
2021/04/12 13:36:58;;;;;;;5.03;3.85;;;10.00;99.90;;;;;;4924004;29;20197;-81
2021/04/12 13:39:38;;;;;;;8.35;5.22;;;10.30;99.90;;;;;;4924147;29;20185;-82
2021/04/12 13:42:17;;;;;;;4.65;3.88;;;10.00;99.90;;;;;;4923726;29;20192;-82
2021/04/12 13:44:52;;;;;;;5.22;3.65;;;9.30;99.90;;;;;;4923753;29;20279;-82
2021/04/12 13:47:25;;;;;;;5.63;3.20;;;8.60;99.90;;;;;;4922326;29;20196;-82
2021/04/12 13:49:56;;;;;;;5.50;3.25;;;8.40;99.90;;;;;;4930253;29;20189;-80
2021/04/12 13:52:27;;;;;;;3.63;2.70;;;8.40;99.90;;;;;;4930909;29;20188;-81
2021/04/12 13:54:58;;;;;;;3.05;2.45;;;8.10;99.90;;;;;;4927617;29;20217;-81
2021/04/12 13:57:33;;;;;;;4.57;2.58;;;8.00;99.90;;;;;;4923547;29;20184;-82
2021/04/12 14:00:10;;;;;;;5.50;4.80;;;7.60;99.90;;;;;;4924021;29;20763;-82
2021/04/12 14:02:40;;;;;;;4.38;2.95;;;7.30;99.90;;;;;;4920607;29;20192;-83
2021/04/12 14:05:19;;;;;;;6.28;2.25;;;8.00;99.90;;;;;;4920926;29;20208;-82
2021/04/12 14:07:48;;;;;;;2.70;1.80;;;8.40;99.90;;;;;;4918130;29;20264;-82
2021/04/12 14:10:23;;;;;;;2.80;2.20;;;7.20;99.90;;;;;;4919766;29;20192;-83
2021/04/12 14:12:57;;;;;;;6.88;3.60;;;6.20;99.90;;;;;;4922635;29;20540;-81
2021/04/12 14:15:31;;;;;;;8.43;4.18;;;5.90;99.90;;;;;;4925287;29;20188;-83
2021/04/12 14:18:02;;;;;;;7.38;6.75;;;5.60;99.90;;;;;;4927032;29;20193;-82
2021/04/12 14:20:34;;;;;;;5.88;5.22;;;5.20;99.90;;;;;;4924828;29;20216;-83
2021/04/12 14:23:07;;;;;;;7.45;6.75;;;4.90;99.90;;;;;;4926251;29;20192;-82
2021/04/12 14:25:37;;;;;;;7.53;6.75;;;5.00;99.90;;;;;;4920994;29;20184;-84
2021/04/12 14:28:07;;;;;;;9.43;8.23;;;5.20;99.90;;;;;;4920670;29;20185;-84
2021/04/12 14:30:42;;;;;;;7.05;6.35;;;6.40;99.90;;;;;;4920850;29;20197;-83